Time;durP1;ratioP1;P1;durP2;ratioP2;P2;SDS_P1;SDS_P2;PMS_P1;PMS_P2;Temp;Humidity;BMP_temperature;BMP_pressure;BME280_temperature;BME280_humidity;BME280_pressure;Samples;Min_cycle;Max_cycle;Signal;HPM_P1;HPM_P2
2021/11/08 00:02:21;;;;;;;8.63;4.93;;;8.50;99.90;;;;;;5029432;28;20040;-74
2021/11/08 00:04:47;;;;;;;12.02;5.35;;;8.50;99.90;;;;;;5014714;28;20113;-73
2021/11/08 00:07:13;;;;;;;7.63;5.20;;;8.40;99.90;;;;;;5014899;28;20168;-74
2021/11/08 00:09:41;;;;;;;11.13;4.90;;;8.40;99.90;;;;;;5015361;28;20041;-73
2021/11/08 00:12:08;;;;;;;10.30;5.00;;;8.40;99.90;;;;;;5016058;28;20029;-73
2021/11/08 00:14:33;;;;;;;8.60;4.97;;;8.40;99.90;;;;;;5015343;28;20018;-73
2021/11/08 00:22:01;;;;;;;8.25;5.07;;;8.30;99.90;;;;;;5015729;28;20025;-72
2021/11/08 00:24:28;;;;;;;9.20;5.35;;;8.30;99.90;;;;;;5013788;28;20117;-73
2021/11/08 00:26:54;;;;;;;12.07;5.38;;;8.30;99.90;;;;;;5015797;28;20028;-72
2021/11/08 00:29:20;;;;;;;9.20;5.75;;;8.20;99.90;;;;;;5013790;28;20022;-74
2021/11/08 00:31:45;;;;;;;11.32;6.25;;;8.30;99.90;;;;;;5014671;28;20026;-73
2021/11/08 00:34:12;;;;;;;7.78;5.35;;;8.20;99.90;;;;;;5015865;28;20026;-73
2021/11/08 00:36:37;;;;;;;9.35;5.43;;;8.20;99.90;;;;;;5013265;28;20030;-73
2021/11/08 00:39:04;;;;;;;10.88;5.53;;;8.20;99.90;;;;;;5015250;28;20539;-73
2021/11/08 00:41:30;;;;;;;9.35;5.72;;;8.10;99.90;;;;;;5013507;28;20080;-73
2021/11/08 00:43:56;;;;;;;13.10;5.30;;;8.00;99.90;;;;;;5015257;28;20063;-73
2021/11/08 00:46:21;;;;;;;11.10;5.70;;;8.00;99.90;;;;;;5015969;28;20481;-73
2021/11/08 00:48:47;;;;;;;14.48;6.07;;;8.00;99.90;;;;;;5014152;28;20026;-73
2021/11/08 00:51:15;;;;;;;21.17;7.18;;;8.00;99.90;;;;;;5012534;28;20348;-73
2021/11/08 00:53:41;;;;;;;18.25;7.40;;;8.00;99.90;;;;;;5012730;28;20266;-73
2021/11/08 00:56:12;;;;;;;15.93;6.35;;;8.10;99.90;;;;;;5029858;28;20061;-73
2021/11/08 00:58:40;;;;;;;10.43;5.78;;;8.10;99.90;;;;;;5029393;28;20022;-73
2021/11/08 01:01:08;;;;;;;13.85;5.78;;;8.10;99.90;;;;;;5029791;28;20053;-73
2021/11/08 01:03:39;;;;;;;11.18;5.55;;;8.10;99.90;;;;;;5014428;28;20024;-73
2021/11/08 01:06:06;;;;;;;8.60;5.68;;;8.10;99.90;;;;;;5030191;28;20025;-72
2021/11/08 01:08:32;;;;;;;10.02;5.63;;;8.10;99.90;;;;;;5014361;28;20446;-73
2021/11/08 01:10:58;;;;;;;9.93;5.32;;;8.20;99.90;;;;;;5014874;28;20045;-73
2021/11/08 01:13:24;;;;;;;10.60;5.85;;;8.10;99.90;;;;;;5014265;28;20029;-73
2021/11/08 01:15:51;;;;;;;11.93;5.95;;;8.10;99.90;;;;;;5014748;28;20018;-72
2021/11/08 01:18:18;;;;;;;11.10;5.35;;;8.10;99.90;;;;;;5014529;28;20034;-73
2021/11/08 01:20:46;;;;;;;12.02;6.05;;;8.10;99.90;;;;;;5029248;28;20034;-72
2021/11/08 01:23:14;;;;;;;10.73;5.95;;;8.10;99.90;;;;;;5014589;28;20045;-73
2021/11/08 01:25:40;;;;;;;10.07;5.78;;;8.10;99.90;;;;;;5029178;28;20026;-73
2021/11/08 01:28:07;;;;;;;9.68;5.85;;;8.10;99.90;;;;;;5029720;28;20474;-72
2021/11/08 01:30:33;;;;;;;10.05;5.97;;;8.00;99.90;;;;;;5014242;28;20478;-73
2021/11/08 01:33:04;;;;;;;16.30;5.93;;;8.00;99.90;;;;;;5029360;28;20036;-72
2021/11/08 01:40:44;;;;;;;11.13;6.25;;;8.00;99.90;;;;;;5013786;28;20025;-73
2021/11/08 01:43:12;;;;;;;11.00;5.90;;;7.90;99.90;;;;;;5029098;28;20025;-72
2021/11/08 01:45:38;;;;;;;12.43;6.63;;;7.90;99.90;;;;;;5013688;28;20049;-73
2021/11/08 01:48:05;;;;;;;12.23;6.25;;;7.90;99.90;;;;;;5014125;28;20485;-73
2021/11/08 01:50:31;;;;;;;12.35;5.88;;;7.80;99.90;;;;;;5013431;28;20018;-73
2021/11/08 01:52:57;;;;;;;12.00;5.85;;;7.80;99.90;;;;;;5029216;28;20025;-73
2021/11/08 01:55:24;;;;;;;10.68;5.88;;;7.80;99.90;;;;;;5029247;28;20029;-72
2021/11/08 01:57:50;;;;;;;14.65;6.25;;;7.80;99.90;;;;;;5013835;28;20034;-72
2021/11/08 02:00:17;;;;;;;11.10;5.63;;;7.70;99.90;;;;;;5028938;28;20041;-73
2021/11/08 02:02:43;;;;;;;13.75;6.07;;;7.70;99.90;;;;;;5027597;28;20022;-73
2021/11/08 02:05:10;;;;;;;12.77;6.10;;;7.60;99.90;;;;;;5029087;28;20370;-73
2021/11/08 02:07:36;;;;;;;10.73;5.68;;;7.60;99.90;;;;;;5013495;28;20030;-73
2021/11/08 02:10:05;;;;;;;8.05;5.07;;;7.60;99.90;;;;;;5028857;28;20539;-73
2021/11/08 02:12:32;;;;;;;10.15;5.55;;;7.60;99.90;;;;;;5012946;28;20532;-73
2021/11/08 02:14:59;;;;;;;11.00;5.70;;;7.60;99.90;;;;;;5028834;28;20029;-73
2021/11/08 02:17:26;;;;;;;12.35;5.90;;;7.60;99.90;;;;;;5013394;28;20474;-75
2021/11/08 02:19:57;;;;;;;11.90;6.00;;;7.60;99.90;;;;;;5013883;28;20092;-73
2021/11/08 02:22:23;;;;;;;10.38;5.82;;;7.60;99.90;;;;;;5028521;28;20026;-73
2021/11/08 02:24:49;;;;;;;12.27;5.93;;;7.50;99.90;;;;;;5028200;28;20021;-73
2021/11/08 02:27:19;;;;;;;11.73;5.93;;;7.50;99.90;;;;;;5028671;28;20022;-73
2021/11/08 02:29:46;;;;;;;12.48;5.82;;;7.50;99.90;;;;;;5028131;28;20064;-73
2021/11/08 02:32:12;;;;;;;9.65;5.50;;;7.50;99.90;;;;;;5013414;28;20022;-73
2021/11/08 02:34:38;;;;;;;17.88;6.00;;;7.50;99.90;;;;;;5027973;28;20030;-73
2021/11/08 02:37:04;;;;;;;10.27;5.55;;;7.50;99.90;;;;;;5028165;28;20033;-73
2021/11/08 02:39:37;;;;;;;12.25;5.15;;;7.50;99.90;;;;;;5027883;28;20489;-73
2021/11/08 02:42:04;;;;;;;11.80;5.53;;;7.40;99.90;;;;;;5013044;28;20487;-73
2021/11/08 02:44:30;;;;;;;12.48;6.07;;;7.50;99.90;;;;;;5028038;28;20394;-73
2021/11/08 02:46:56;;;;;;;11.00;5.47;;;7.50;99.90;;;;;;5028342;28;20029;-73
2021/11/08 02:49:24;;;;;;;14.32;5.55;;;7.40;99.90;;;;;;5028434;28;20029;-73
2021/11/08 02:51:59;;;;;;;11.32;5.53;;;7.40;99.90;;;;;;5027718;28;20049;-73
2021/11/08 02:54:33;;;;;;;13.52;5.95;;;7.40;99.90;;;;;;5028279;28;20061;-73
2021/11/08 02:57:00;;;;;;;11.45;5.32;;;7.40;99.90;;;;;;5012992;28;20014;-73
2021/11/08 02:59:28;;;;;;;12.30;5.63;;;7.40;99.90;;;;;;5027883;28;20053;-73
2021/11/08 03:01:55;;;;;;;9.82;5.18;;;7.40;99.90;;;;;;5028473;28;20030;-73
2021/11/08 03:04:30;;;;;;;13.00;5.32;;;7.40;99.90;;;;;;5028207;28;20022;-73
2021/11/08 03:06:56;;;;;;;12.80;5.57;;;7.40;99.90;;;;;;5013031;28;20022;-73
2021/11/08 03:09:29;;;;;;;11.90;5.50;;;7.30;99.90;;;;;;5012988;28;20029;-73
2021/11/08 03:11:55;;;;;;;10.35;5.68;;;7.30;99.90;;;;;;5012989;28;20028;-73
2021/11/08 03:14:25;;;;;;;15.20;5.47;;;7.30;99.90;;;;;;5029666;28;20109;-73
2021/11/08 03:16:59;;;;;;;14.77;6.03;;;7.30;99.90;;;;;;5031644;28;20022;-72
2021/11/08 03:19:34;;;;;;;11.43;5.55;;;7.30;99.90;;;;;;5032199;28;20040;-72
2021/11/08 03:22:02;;;;;;;10.25;5.65;;;7.30;99.90;;;;;;5017023;28;20060;-73
2021/11/08 03:27:43;;;;;;;12.20;5.55;;;7.40;99.90;;;;;;5016894;28;20451;-72
2021/11/08 03:30:10;;;;;;;12.32;5.55;;;7.40;99.90;;;;;;5031896;28;20034;-72
2021/11/08 03:32:37;;;;;;;16.02;6.18;;;7.40;99.90;;;;;;5031372;28;20029;-73
2021/11/08 03:35:05;;;;;;;14.73;5.82;;;7.40;99.90;;;;;;5031901;28;20022;-72
2021/11/08 03:37:37;;;;;;;11.93;5.57;;;7.40;99.90;;;;;;5016085;28;20443;-73
2021/11/08 03:40:10;;;;;;;13.32;5.30;;;7.30;99.90;;;;;;5032140;28;20136;-73
2021/11/08 03:42:36;;;;;;;10.98;5.10;;;7.40;99.90;;;;;;5031022;28;20026;-72
2021/11/08 03:45:03;;;;;;;11.20;5.60;;;7.30;99.90;;;;;;5016223;28;20080;-72
2021/11/08 03:47:30;;;;;;;10.45;6.07;;;7.30;99.90;;;;;;5016380;28;20030;-73
2021/11/08 03:49:56;;;;;;;13.23;5.22;;;7.20;99.90;;;;;;5016109;28;20025;-72
2021/11/08 03:52:21;;;;;;;12.55;4.95;;;7.10;99.90;;;;;;5031625;28;20072;-73
2021/11/08 03:54:47;;;;;;;11.15;5.57;;;7.10;99.90;;;;;;5030873;28;20426;-73
2021/11/08 03:57:13;;;;;;;13.35;5.80;;;7.10;99.90;;;;;;5031377;28;20021;-73
2021/11/08 03:59:39;;;;;;;9.30;5.18;;;7.10;99.90;;;;;;5015308;28;20046;-73
2021/11/08 04:02:04;;;;;;;16.52;5.65;;;7.10;99.90;;;;;;5031358;28;20025;-73
2021/11/08 04:04:30;;;;;;;10.20;5.03;;;7.10;99.90;;;;;;5016105;28;20022;-73
2021/11/08 04:06:57;;;;;;;10.68;5.32;;;7.00;99.90;;;;;;5030678;28;20068;-73
2021/11/08 04:09:23;;;;;;;10.10;5.07;;;7.00;99.90;;;;;;5031385;28;20026;-73
2021/11/08 04:11:50;;;;;;;9.68;5.43;;;7.00;99.90;;;;;;5030594;28;20041;-73
2021/11/08 04:14:17;;;;;;;14.30;5.05;;;7.00;99.90;;;;;;5015981;28;20021;-73
2021/11/08 04:16:44;;;;;;;11.02;4.85;;;7.00;99.90;;;;;;5015250;28;20024;-73
2021/11/08 04:19:10;;;;;;;12.02;5.80;;;7.00;99.90;;;;;;5031023;28;20113;-73
2021/11/08 04:21:37;;;;;;;10.63;4.88;;;7.00;99.90;;;;;;5030095;28;20490;-73
2021/11/08 04:24:04;;;;;;;13.70;5.40;;;6.90;99.90;;;;;;5015731;28;20076;-73
2021/11/08 04:26:32;;;;;;;12.75;5.15;;;6.80;99.90;;;;;;5029595;28;20068;-73
2021/11/08 04:29:07;;;;;;;15.40;5.05;;;6.80;99.90;;;;;;5015005;28;20038;-73
2021/11/08 04:31:37;;;;;;;10.52;5.15;;;6.80;99.90;;;;;;5030824;28;20076;-73
2021/11/08 04:42:02;;;;;;;15.32;5.25;;;6.90;99.90;;;;;;5014812;28;20449;-73
2021/11/08 04:55:22;;;;;;;11.82;5.00;;;6.70;99.90;;;;;;5015082;28;20484;-73
2021/11/08 05:22:16;;;;;;;10.83;4.47;;;6.60;99.90;;;;;;5014454;28;20517;-72
2021/11/08 05:30:00;;;;;;;11.23;4.90;;;6.60;99.90;;;;;;5013941;28;20036;-73
2021/11/08 05:32:29;;;;;;;15.03;5.37;;;6.60;99.90;;;;;;5014464;28;20057;-72
2021/11/08 05:34:55;;;;;;;18.20;5.67;;;6.50;99.90;;;;;;5013576;28;20017;-73
2021/11/08 05:37:22;;;;;;;13.63;5.37;;;6.40;99.90;;;;;;5029170;28;20079;-73
2021/11/08 05:39:50;;;;;;;11.03;5.00;;;6.40;99.90;;;;;;5028816;28;20483;-73
2021/11/08 05:42:16;;;;;;;13.93;5.35;;;6.40;99.90;;;;;;5029377;28;20022;-73
2021/11/08 05:44:42;;;;;;;10.77;5.10;;;6.40;99.90;;;;;;5028860;28;20165;-73
2021/11/08 05:47:08;;;;;;;14.53;5.20;;;6.30;99.90;;;;;;5029392;28;20117;-73
2021/11/08 05:49:35;;;;;;;11.30;5.43;;;6.30;99.90;;;;;;5029056;28;20029;-73
2021/11/08 05:52:03;;;;;;;14.98;5.75;;;6.30;99.90;;;;;;5028493;28;20463;-72
2021/11/08 05:54:29;;;;;;;11.80;5.40;;;6.30;99.90;;;;;;5013836;28;20032;-73
2021/11/08 06:51:11;;;;;;;11.60;5.00;;;5.60;99.90;;;;;;5011187;28;20040;-74
2021/11/08 06:53:38;;;;;;;8.17;4.80;;;5.60;99.90;;;;;;5026465;28;20109;-73
2021/11/08 06:56:04;;;;;;;10.50;4.83;;;5.60;99.90;;;;;;5024504;28;20077;-72
2021/11/08 06:58:30;;;;;;;9.80;4.93;;;5.60;99.90;;;;;;5026710;28;20051;-72
2021/11/08 07:00:56;;;;;;;9.30;4.57;;;5.60;99.90;;;;;;5009577;28;20136;-73
2021/11/08 07:03:22;;;;;;;11.03;5.23;;;5.60;99.90;;;;;;5011966;28;20080;-73
2021/11/08 07:05:49;;;;;;;9.47;5.60;;;5.60;99.90;;;;;;5010043;28;20030;-73
2021/11/08 07:08:15;;;;;;;10.47;5.27;;;5.60;99.90;;;;;;5011481;28;20053;-73
2021/11/08 07:10:41;;;;;;;11.40;5.63;;;5.60;99.90;;;;;;5010735;28;20464;-74
2021/11/08 07:13:07;;;;;;;16.63;5.63;;;5.60;99.90;;;;;;5010756;28;20022;-73
2021/11/08 07:15:33;;;;;;;11.90;5.77;;;5.70;99.90;;;;;;5011018;28;20053;-73
2021/11/08 07:17:59;;;;;;;11.10;5.43;;;5.70;99.90;;;;;;5009682;28;20407;-73
2021/11/08 07:20:25;;;;;;;13.43;6.20;;;5.80;99.90;;;;;;5010915;28;20113;-72
2021/11/08 07:22:51;;;;;;;11.37;5.60;;;5.90;99.90;;;;;;5010192;28;20061;-72
2021/11/08 07:25:18;;;;;;;12.23;6.63;;;6.00;99.90;;;;;;5010344;28;20026;-73
2021/11/08 07:27:44;;;;;;;13.57;6.30;;;6.10;99.90;;;;;;5010889;28;20030;-75
2021/11/08 07:30:10;;;;;;;12.80;6.10;;;6.10;99.90;;;;;;5010546;28;20137;-73
2021/11/08 07:32:36;;;;;;;14.00;5.83;;;6.10;99.90;;;;;;5011050;28;20472;-73
2021/11/08 07:35:02;;;;;;;11.67;5.33;;;6.10;99.90;;;;;;5010551;28;20087;-74
2021/11/08 07:37:28;;;;;;;12.03;6.00;;;6.30;99.90;;;;;;5011580;28;20487;-72
2021/11/08 07:39:54;;;;;;;12.57;5.70;;;6.30;99.90;;;;;;5010350;28;20037;-73
2021/11/08 07:42:20;;;;;;;14.67;6.03;;;6.30;99.90;;;;;;5010814;28;20072;-72
2021/11/08 07:44:46;;;;;;;14.93;5.97;;;6.40;99.90;;;;;;5011434;28;20087;-74
2021/11/08 07:47:12;;;;;;;12.13;6.37;;;6.50;99.90;;;;;;5010867;28;20034;-73
2021/11/08 07:49:38;;;;;;;15.73;6.60;;;6.50;99.90;;;;;;5010304;28;20414;-72
2021/11/08 07:52:05;;;;;;;18.57;6.57;;;6.50;99.90;;;;;;5010157;28;20571;-73
2021/11/08 07:54:32;;;;;;;14.97;6.20;;;6.50;99.90;;;;;;5010643;28;20026;-72
2021/11/08 07:57:01;;;;;;;16.07;6.10;;;6.40;99.90;;;;;;5010659;28;20084;-72
2021/11/08 07:59:27;;;;;;;16.27;6.30;;;6.40;99.90;;;;;;5026123;28;20491;-73
2021/11/08 08:01:53;;;;;;;12.90;6.23;;;6.50;99.90;;;;;;5013733;28;20036;-73
2021/11/08 08:04:19;;;;;;;15.40;7.50;;;6.50;99.90;;;;;;5014400;28;20463;-73
2021/11/08 08:06:48;;;;;;;16.23;7.00;;;6.50;99.90;;;;;;5013859;28;20430;-75
2021/11/08 08:09:16;;;;;;;9.83;6.20;;;6.50;99.90;;;;;;5014223;28;20065;-73
2021/11/08 08:11:42;;;;;;;14.60;6.73;;;6.50;99.90;;;;;;5014098;28;20018;-75
2021/11/08 08:14:08;;;;;;;15.23;6.53;;;6.60;99.90;;;;;;5014046;28;20121;-73
2021/11/08 08:16:34;;;;;;;9.53;6.33;;;6.60;99.90;;;;;;5014231;28;20022;-73
2021/11/08 08:19:00;;;;;;;16.00;7.00;;;6.60;99.90;;;;;;5014353;28;20116;-73
2021/11/08 08:21:26;;;;;;;23.20;7.45;;;6.60;99.90;;;;;;5013530;28;20113;-73
2021/11/08 08:23:54;;;;;;;16.17;6.90;;;6.70;99.90;;;;;;5014582;28;20033;-73
2021/11/08 08:26:26;;;;;;;15.63;6.47;;;6.80;99.90;;;;;;5015207;28;20040;-73
2021/11/08 08:28:52;;;;;;;18.00;6.72;;;6.80;99.90;;;;;;5013430;28;20034;-73
2021/11/08 08:31:18;;;;;;;18.40;6.78;;;6.90;99.90;;;;;;5014418;28;20041;-73
2021/11/08 08:33:43;;;;;;;16.80;6.93;;;7.00;99.90;;;;;;5013379;28;20419;-75
2021/11/08 08:36:09;;;;;;;17.98;7.47;;;7.00;99.90;;;;;;5013165;28;20033;-73
2021/11/08 08:38:35;;;;;;;17.08;6.68;;;7.00;99.90;;;;;;5014690;28;20038;-73
2021/11/08 08:41:01;;;;;;;19.25;7.03;;;7.00;99.90;;;;;;5012546;28;20041;-73
2021/11/08 08:43:28;;;;;;;18.65;7.15;;;7.00;99.90;;;;;;5008515;28;20050;-74
2021/11/08 08:45:55;;;;;;;19.00;6.05;;;7.00;99.90;;;;;;5011336;28;20030;-73
2021/11/08 08:48:21;;;;;;;13.77;6.35;;;7.00;99.90;;;;;;5011362;28;20034;-74
2021/11/08 08:50:47;;;;;;;14.95;6.63;;;7.00;99.90;;;;;;5010515;28;20137;-74
2021/11/08 08:53:13;;;;;;;12.82;5.28;;;6.90;99.90;;;;;;5027359;28;20369;-73
2021/11/08 08:55:40;;;;;;;16.02;6.30;;;7.00;99.90;;;;;;5012090;28;20483;-73
2021/11/08 08:58:07;;;;;;;20.02;6.55;;;7.00;99.90;;;;;;5026115;28;20117;-73
2021/11/08 09:00:34;;;;;;;13.32;6.22;;;7.10;99.90;;;;;;5001470;28;20050;-74
2021/11/08 09:03:00;;;;;;;19.38;6.65;;;7.10;99.90;;;;;;5010944;28;20038;-74
2021/11/08 09:05:26;;;;;;;18.45;6.57;;;7.10;99.90;;;;;;5009680;28;20026;-73
2021/11/08 09:07:54;;;;;;;16.95;6.45;;;7.20;99.90;;;;;;5010627;28;20391;-73
2021/11/08 09:10:22;;;;;;;15.32;6.85;;;7.20;99.90;;;;;;5010616;28;20029;-73
2021/11/08 09:12:48;;;;;;;15.95;6.68;;;7.30;99.90;;;;;;5009892;28;20033;-73
2021/11/08 09:15:13;;;;;;;16.55;5.85;;;7.30;99.90;;;;;;5022477;28;20471;-74
2021/11/08 09:17:39;;;;;;;16.02;6.18;;;7.30;99.90;;;;;;5008192;28;20045;-73
2021/11/08 09:20:06;;;;;;;14.50;6.13;;;7.40;99.90;;;;;;5026862;28;20053;-73
2021/11/08 09:22:31;;;;;;;18.88;6.80;;;7.40;99.90;;;;;;5025582;28;20058;-73
2021/11/08 09:24:57;;;;;;;15.20;6.53;;;7.50;99.90;;;;;;5010727;28;20475;-73
2021/11/08 09:27:23;;;;;;;17.08;6.65;;;7.50;99.90;;;;;;5025368;28;20423;-74
2021/11/08 09:29:48;;;;;;;18.42;7.00;;;7.50;99.90;;;;;;5024720;28;20026;-73
2021/11/08 09:32:14;;;;;;;13.05;6.20;;;7.70;99.90;;;;;;5025228;28;20406;-73
2021/11/08 09:34:46;;;;;;;18.63;6.55;;;7.70;99.90;;;;;;5025441;28;20105;-74
2021/11/08 09:37:15;;;;;;;16.65;6.75;;;7.80;99.90;;;;;;5025362;28;20065;-73
2021/11/08 09:39:41;;;;;;;18.73;6.72;;;7.80;99.90;;;;;;5007778;28;20030;-74
2021/11/08 09:42:10;;;;;;;15.07;7.15;;;7.90;99.90;;;;;;5006503;28;20040;-73
2021/11/08 09:44:37;;;;;;;18.67;7.00;;;7.90;99.90;;;;;;5013283;28;20026;-73
2021/11/08 09:47:03;;;;;;;15.82;6.45;;;8.10;99.90;;;;;;5012199;28;20124;-74
2021/11/08 09:49:30;;;;;;;15.15;6.32;;;8.20;99.90;;;;;;5011080;28;20137;-74
2021/11/08 09:51:58;;;;;;;17.17;6.03;;;8.30;99.90;;;;;;5011375;28;20029;-73
2021/11/08 09:54:40;;;;;;;20.13;6.13;;;8.40;99.90;;;;;;5011080;28;20430;-74
2021/11/08 09:57:05;;;;;;;;;;;8.50;99.90;;;;;;5011319;28;20018;-75
2021/11/08 09:59:33;;;;;;;11.50;5.78;;;8.70;99.90;;;;;;5009882;28;19971;-75
2021/11/08 10:01:59;;;;;;;18.67;6.85;;;8.80;99.90;;;;;;5010858;28;20034;-76
2021/11/08 10:04:25;;;;;;;14.20;6.30;;;8.90;99.90;;;;;;5010969;28;20022;-76
2021/11/08 10:06:51;;;;;;;15.60;6.45;;;8.90;99.90;;;;;;5009041;28;20140;-76
2021/11/08 10:09:19;;;;;;;13.57;6.32;;;8.90;99.90;;;;;;5008876;28;20030;-75
2021/11/08 10:11:47;;;;;;;15.13;6.43;;;8.90;99.90;;;;;;5008281;28;20550;-74
2021/11/08 10:14:14;;;;;;;13.52;6.13;;;8.90;99.90;;;;;;5009810;28;20028;-74
2021/11/08 10:16:42;;;;;;;15.65;6.10;;;9.00;99.90;;;;;;5009500;28;20446;-74
2021/11/08 10:19:11;;;;;;;11.73;5.53;;;9.00;99.90;;;;;;5008395;28;20426;-74
2021/11/08 10:21:43;;;;;;;11.35;5.10;;;9.10;99.90;;;;;;5025152;28;20037;-75
2021/11/08 10:24:20;;;;;;;16.38;6.18;;;9.30;99.90;;;;;;5007360;28;20037;-74
2021/11/08 10:26:46;;;;;;;17.15;5.97;;;9.40;99.90;;;;;;5016164;28;20080;-75
2021/11/08 10:29:18;;;;;;;14.90;6.13;;;9.40;99.90;;;;;;5008351;28;20032;-74
2021/11/08 10:31:47;;;;;;;11.15;5.30;;;9.40;99.90;;;;;;5010012;28;20037;-77
2021/11/08 10:34:14;;;;;;;12.45;5.53;;;9.30;99.90;;;;;;5025695;28;20068;-76
2021/11/08 10:36:41;;;;;;;19.80;6.70;;;9.40;99.90;;;;;;5024826;28;20108;-74
2021/11/08 10:39:08;;;;;;;13.70;6.03;;;9.50;99.90;;;;;;5009208;28;20076;-76
2021/11/08 10:41:38;;;;;;;15.73;5.70;;;9.50;99.90;;;;;;5009357;28;20041;-76
2021/11/08 10:44:11;;;;;;;12.95;5.50;;;9.40;99.90;;;;;;5008168;28;20439;-75
2021/11/08 10:46:42;;;;;;;18.02;6.45;;;9.40;99.90;;;;;;5011240;28;20022;-76
2021/11/08 10:49:10;;;;;;;27.17;5.70;;;9.30;99.90;;;;;;5013015;28;20034;-73
2021/11/08 10:51:37;;;;;;;12.70;4.85;;;9.40;99.90;;;;;;5010646;28;20057;-74
2021/11/08 10:54:07;;;;;;;11.23;4.75;;;9.30;99.90;;;;;;5008810;28;20085;-73
2021/11/08 10:56:46;;;;;;;13.50;4.88;;;9.30;99.90;;;;;;5010019;28;20030;-74
2021/11/08 10:59:20;;;;;;;15.13;4.80;;;9.30;99.90;;;;;;5024463;28;20057;-73
2021/11/08 11:01:47;;;;;;;16.23;4.47;;;9.30;99.90;;;;;;5008834;28;20088;-74
2021/11/08 11:04:14;;;;;;;15.90;4.25;;;9.30;99.90;;;;;;5009242;28;20041;-73
2021/11/08 11:06:48;;;;;;;11.48;4.15;;;9.30;99.90;;;;;;5025469;28;20030;-73
2021/11/08 11:09:24;;;;;;;13.48;4.22;;;9.40;99.90;;;;;;5009672;28;20144;-74
2021/11/08 11:12:14;;;;;;;15.23;4.57;;;9.50;99.90;;;;;;5008961;28;20054;-73
2021/11/08 11:14:46;;;;;;;11.75;3.65;;;9.50;99.90;;;;;;5009630;28;20586;-74
2021/11/08 11:17:17;;;;;;;12.32;4.00;;;9.50;99.90;;;;;;5009994;28;20037;-74
2021/11/08 11:19:43;;;;;;;12.82;3.95;;;9.50;99.90;;;;;;5007715;28;20084;-73
2021/11/08 11:22:14;;;;;;;13.75;4.72;;;9.50;99.90;;;;;;5008813;28;20025;-74
2021/11/08 11:24:55;;;;;;;12.77;4.63;;;9.50;99.90;;;;;;5007759;28;20026;-73
2021/11/08 11:27:24;;;;;;;14.07;4.70;;;9.70;99.90;;;;;;5008626;28;20029;-74
2021/11/08 11:30:05;;;;;;;15.38;4.90;;;9.70;99.90;;;;;;5021670;28;20168;-73
2021/11/08 11:32:31;;;;;;;14.38;4.65;;;9.80;99.90;;;;;;5008757;28;20021;-74
2021/11/08 11:34:57;;;;;;;12.23;4.50;;;9.70;99.90;;;;;;5007555;28;20045;-74
2021/11/08 11:37:26;;;;;;;10.30;3.80;;;9.80;99.90;;;;;;5011975;28;20026;-74
2021/11/08 11:40:10;;;;;;;12.68;3.97;;;9.80;99.90;;;;;;5009920;28;20061;-74
2021/11/08 11:42:55;;;;;;;11.88;3.97;;;9.80;99.90;;;;;;5012108;28;20068;-74
2021/11/08 11:45:21;;;;;;;12.18;3.40;;;9.90;99.90;;;;;;5011495;28;20048;-74
2021/11/08 11:48:01;;;;;;;12.18;3.83;;;10.00;99.70;;;;;;5011856;28;20049;-75
2021/11/08 11:50:27;;;;;;;13.65;3.45;;;10.10;99.70;;;;;;5011710;28;20053;-72
2021/11/08 11:52:53;;;;;;;12.65;3.78;;;10.30;99.20;;;;;;5010751;28;20061;-73
2021/11/08 11:55:19;;;;;;;11.30;3.28;;;10.40;99.00;;;;;;5010950;28;20026;-73
2021/11/08 11:57:45;;;;;;;13.57;3.50;;;10.70;98.10;;;;;;5010269;28;20080;-73
2021/11/08 12:00:11;;;;;;;14.15;3.35;;;10.90;97.50;;;;;;5009865;28;20517;-73
2021/11/08 12:02:37;;;;;;;13.35;3.28;;;11.10;97.00;;;;;;5012304;28;20049;-73
2021/11/08 12:05:04;;;;;;;10.98;3.08;;;11.30;96.30;;;;;;5010415;28;20062;-73
2021/11/08 12:07:32;;;;;;;8.85;2.88;;;11.50;95.90;;;;;;5010488;28;20069;-73
2021/11/08 12:10:03;;;;;;;11.40;2.80;;;11.70;95.10;;;;;;5010612;28;20444;-73
2021/11/08 12:12:30;;;;;;;15.18;2.88;;;11.80;94.90;;;;;;5009648;28;20022;-73
2021/11/08 12:15:07;;;;;;;12.98;2.63;;;12.00;94.60;;;;;;5009571;28;20076;-73
2021/11/08 12:17:52;;;;;;;9.23;2.55;;;12.20;94.40;;;;;;5011487;28;20054;-73
2021/11/08 12:20:24;;;;;;;10.98;2.40;;;12.30;93.20;;;;;;5023150;28;20036;-73
2021/11/08 12:22:50;;;;;;;12.85;2.20;;;12.50;92.10;;;;;;5011270;28;20057;-73
2021/11/08 12:25:26;;;;;;;8.90;2.60;;;12.70;91.70;;;;;;5010390;28;20061;-73
2021/11/08 12:28:14;;;;;;;13.23;2.10;;;12.80;90.80;;;;;;5006414;28;20834;-73
2021/11/08 12:30:44;;;;;;;11.77;1.88;;;12.90;90.20;;;;;;5011863;28;20455;-75
2021/11/08 12:33:33;;;;;;;7.00;1.80;;;13.00;89.60;;;;;;5013338;28;20371;-72
2021/11/08 12:36:14;;;;;;;11.38;2.22;;;13.10;90.20;;;;;;5007020;28;20025;-75
2021/11/08 12:38:51;;;;;;;8.85;2.05;;;13.30;90.00;;;;;;5014564;28;20036;-75
2021/11/08 12:41:27;;;;;;;7.93;1.40;;;13.70;87.60;;;;;;5029503;28;20470;-75
2021/11/08 12:43:56;;;;;;;8.13;1.63;;;14.20;84.90;;;;;;5013994;28;20025;-75
2021/11/08 12:46:31;;;;;;;10.77;1.70;;;14.70;82.10;;;;;;5012968;28;20053;-76
2021/11/08 12:49:20;;;;;;;7.25;1.50;;;15.10;80.10;;;;;;5013958;28;20029;-73
2021/11/08 12:51:53;;;;;;;9.13;1.85;;;15.40;77.00;;;;;;5012433;28;20025;-74
2021/11/08 12:54:20;;;;;;;9.27;1.45;;;15.40;76.30;;;;;;5013827;28;20455;-74
2021/11/08 12:56:47;;;;;;;7.20;1.75;;;15.40;75.60;;;;;;5013029;28;20021;-75
2021/11/08 12:59:18;;;;;;;9.43;2.03;;;15.30;73.20;;;;;;5013418;28;20042;-74
2021/11/08 13:01:56;;;;;;;9.27;1.75;;;15.30;75.20;;;;;;5011962;28;20022;-75
2021/11/08 13:04:31;;;;;;;10.55;1.50;;;15.60;71.20;;;;;;5012815;28;20026;-75
2021/11/08 13:07:08;;;;;;;5.03;1.13;;;16.10;71.40;;;;;;5011663;28;20172;-72
2021/11/08 13:09:50;;;;;;;10.75;1.60;;;16.60;67.20;;;;;;5011744;28;20068;-73
2021/11/08 13:12:20;;;;;;;7.68;2.08;;;17.10;62.90;;;;;;5012220;28;20014;-73
2021/11/08 13:14:49;;;;;;;5.45;1.95;;;17.20;61.30;;;;;;5001906;28;20030;-74
2021/11/08 13:17:21;;;;;;;8.82;2.25;;;17.30;61.30;;;;;;5012661;28;20348;-72
2021/11/08 13:19:47;;;;;;;6.30;1.33;;;17.30;61.80;;;;;;5012190;28;20033;-73
2021/11/08 13:22:23;;;;;;;6.85;1.65;;;17.20;61.60;;;;;;5010819;28;20406;-76
2021/11/08 13:25:07;;;;;;;8.73;1.67;;;17.10;64.30;;;;;;5004012;28;20079;-73
2021/11/08 13:27:33;;;;;;;10.50;2.35;;;16.70;63.70;;;;;;5013893;28;20045;-73
2021/11/08 13:30:07;;;;;;;11.88;2.67;;;16.30;66.40;;;;;;5005973;28;20371;-72
2021/11/08 13:32:33;;;;;;;8.05;1.65;;;16.00;65.10;;;;;;5011971;28;20443;-72
2021/11/08 13:35:25;;;;;;;5.97;1.60;;;15.60;63.80;;;;;;5010957;28;20037;-70
2021/11/08 13:38:06;;;;;;;11.10;1.90;;;15.40;67.00;;;;;;5011387;28;20029;-72
2021/11/08 13:40:35;;;;;;;8.63;1.55;;;15.20;70.20;;;;;;5013137;28;20410;-72
2021/11/08 13:43:07;;;;;;;6.00;1.50;;;14.90;72.70;;;;;;5011029;28;20040;-74
2021/11/08 13:45:45;;;;;;;9.93;2.22;;;14.80;73.50;;;;;;5004811;28;20037;-73
2021/11/08 13:48:27;;;;;;;10.18;1.98;;;14.60;75.20;;;;;;5010157;28;20037;-73
2021/11/08 13:50:55;;;;;;;8.38;2.00;;;14.50;77.60;;;;;;5023974;28;20026;-74
2021/11/08 13:53:30;;;;;;;8.18;1.88;;;14.40;78.30;;;;;;5010275;28;20034;-75
2021/11/08 13:56:03;;;;;;;10.15;2.13;;;14.20;78.90;;;;;;5008040;28;20029;-74
2021/11/08 13:58:30;;;;;;;9.98;2.33;;;14.20;79.10;;;;;;5008659;28;20041;-74
2021/11/08 14:01:09;;;;;;;6.63;2.10;;;14.00;80.50;;;;;;5007599;28;20053;-75
2021/11/08 14:03:46;;;;;;;6.63;1.50;;;13.90;78.80;;;;;;5007409;28;20030;-74
2021/11/08 14:06:14;;;;;;;10.00;1.80;;;13.80;78.50;;;;;;5003908;28;20021;-74
2021/11/08 14:08:48;;;;;;;8.88;2.05;;;13.60;76.90;;;;;;5008184;28;20533;-74
2021/11/08 14:11:29;;;;;;;6.82;1.98;;;13.50;78.50;;;;;;5008480;28;20041;-73
2021/11/08 14:14:02;;;;;;;7.93;2.00;;;13.40;78.90;;;;;;5007880;28;20025;-74
2021/11/08 14:16:28;;;;;;;7.32;2.05;;;13.30;80.80;;;;;;5008363;28;20030;-74
2021/11/08 14:18:54;;;;;;;7.13;2.10;;;13.20;81.40;;;;;;5008162;28;20527;-74
2021/11/08 14:21:22;;;;;;;10.70;2.25;;;13.20;84.40;;;;;;5008513;28;20057;-73
2021/11/08 14:23:55;;;;;;;9.32;2.38;;;13.10;83.20;;;;;;5008193;28;20036;-74
2021/11/08 14:26:22;;;;;;;10.85;2.30;;;12.80;84.80;;;;;;5009640;28;20018;-72
2021/11/08 14:28:49;;;;;;;6.95;2.30;;;12.70;86.30;;;;;;5009167;28;20121;-77
2021/11/08 14:31:22;;;;;;;7.47;1.88;;;12.60;86.30;;;;;;5008156;28;20032;-73
2021/11/08 14:33:50;;;;;;;10.32;2.30;;;12.50;86.00;;;;;;5024561;28;20042;-75
2021/11/08 14:36:22;;;;;;;6.93;1.95;;;12.40;86.10;;;;;;5009500;28;20024;-73
2021/11/08 14:38:56;;;;;;;;;;;12.30;86.70;;;;;;4999163;28;20507;-73
2021/11/08 14:41:23;;;;;;;10.25;2.58;;;12.20;87.20;;;;;;5008156;28;20003;-75
2021/11/08 14:43:57;;;;;;;7.72;2.38;;;12.10;88.20;;;;;;5006991;28;20382;-74
2021/11/08 14:46:34;;;;;;;8.57;2.78;;;12.10;89.10;;;;;;5007689;28;20121;-74
2021/11/08 14:49:15;;;;;;;5.10;2.15;;;12.00;90.60;;;;;;5005118;28;20426;-73
2021/11/08 14:51:42;;;;;;;7.90;1.85;;;11.90;91.00;;;;;;5022465;28;20026;-74
2021/11/08 14:54:09;;;;;;;9.15;2.05;;;11.90;91.20;;;;;;5006663;28;20057;-74